createdAt,value
2022-10-04T00:01:17.944Z,14.60
2022-10-04T00:03:30.998Z,14.60
2022-10-04T00:05:34.074Z,14.70
2022-10-04T00:07:47.775Z,14.60
2022-10-04T00:10:31.845Z,14.60
2022-10-04T00:12:48.656Z,14.60
2022-10-04T00:14:55.994Z,14.50
2022-10-04T00:17:00.655Z,14.40
2022-10-04T00:19:38.364Z,14.40
2022-10-04T00:21:56.348Z,14.50
2022-10-04T00:24:11.295Z,14.50
2022-10-04T00:26:36.435Z,14.50
2022-10-04T00:28:40.056Z,14.50
2022-10-04T00:30:42.782Z,14.40
2022-10-04T00:33:01.478Z,14.40
2022-10-04T00:35:26.769Z,14.50
2022-10-04T00:38:07.594Z,14.40
2022-10-04T00:40:18.752Z,14.50
2022-10-04T00:42:39.348Z,14.50
2022-10-04T00:44:55.027Z,14.50
2022-10-04T00:47:00.942Z,14.50
2022-10-04T00:49:06.945Z,14.40
2022-10-04T00:51:38.311Z,14.50
2022-10-04T00:53:53.634Z,14.50
2022-10-04T00:56:02.306Z,14.50
2022-10-04T00:58:15.646Z,14.40
2022-10-04T01:00:21.637Z,14.40
2022-10-04T01:02:46.167Z,14.40
2022-10-04T01:05:04.623Z,14.40
2022-10-04T01:07:08.535Z,14.40
2022-10-04T01:09:13.187Z,14.40
2022-10-04T01:11:27.420Z,14.40
2022-10-04T01:13:43.548Z,14.30
2022-10-04T01:16:02.809Z,14.30
2022-10-04T01:18:28.839Z,14.30
2022-10-04T01:20:39.389Z,14.20
2022-10-04T01:22:48.955Z,14.30
2022-10-04T01:24:51.663Z,14.20
2022-10-04T01:26:54.463Z,14.30
2022-10-04T01:29:36.007Z,14.30
2022-10-04T01:31:44.744Z,14.30
2022-10-04T01:33:48.131Z,14.20
2022-10-04T01:35:50.989Z,14.30
2022-10-04T01:37:54.255Z,14.30
2022-10-04T01:39:57.343Z,14.30
2022-10-04T01:42:05.175Z,14.30
2022-10-04T01:44:23.215Z,14.30
2022-10-04T01:46:37.640Z,14.20
2022-10-04T01:48:44.173Z,14.20
2022-10-04T01:51:00.369Z,14.30
2022-10-04T01:53:22.482Z,14.30
2022-10-04T01:55:30.146Z,14.20
2022-10-04T01:57:42.904Z,14.20
2022-10-04T01:59:57.720Z,14.20
2022-10-04T02:02:23.915Z,14.20
2022-10-04T02:04:34.784Z,14.20
2022-10-04T02:06:44.175Z,14.20
2022-10-04T02:08:51.034Z,14.20
2022-10-04T02:10:54.997Z,14.20
2022-10-04T02:12:58.452Z,14.30
2022-10-04T02:15:03.950Z,14.30
2022-10-04T02:17:10.615Z,14.30
2022-10-04T02:19:14.983Z,14.20
2022-10-04T02:21:19.127Z,14.20
2022-10-04T02:23:23.747Z,14.20
2022-10-04T02:25:26.905Z,14.20
2022-10-04T02:27:32.195Z,14.30
2022-10-04T02:29:34.988Z,14.30
2022-10-04T02:31:58.249Z,14.20
2022-10-04T02:34:00.982Z,14.20
2022-10-04T02:36:03.671Z,14.20
2022-10-04T02:38:13.428Z,14.20
2022-10-04T02:40:21.865Z,14.20
2022-10-04T02:42:50.314Z,14.20
2022-10-04T02:45:06.388Z,14.20
2022-10-04T02:47:20.355Z,14.10
2022-10-04T02:49:38.181Z,14.10
2022-10-04T02:51:49.802Z,14.20
2022-10-04T02:54:03.604Z,14.20
2022-10-04T02:56:06.615Z,14.20
2022-10-04T02:58:41.256Z,14.20
2022-10-04T03:00:57.024Z,14.20
2022-10-04T03:03:31.009Z,14.20
2022-10-04T03:05:34.226Z,14.10
2022-10-04T03:07:38.418Z,14.20
2022-10-04T03:09:41.149Z,14.10
2022-10-04T03:11:44.566Z,14.10
2022-10-04T03:13:54.944Z,14.10
2022-10-04T03:15:57.710Z,14.10
2022-10-04T03:18:00.763Z,14.20
2022-10-04T03:20:07.230Z,14.20
2022-10-04T03:22:11.815Z,14.10
2022-10-04T03:24:22.660Z,14.10
2022-10-04T03:26:51.232Z,14.10
2022-10-04T03:28:54.110Z,14.10
2022-10-04T03:30:58.175Z,14.10
2022-10-04T03:33:00.837Z,14.10
2022-10-04T03:35:07.730Z,14.10
2022-10-04T03:37:17.367Z,14.10
2022-10-04T03:39:37.925Z,14.10
2022-10-04T03:41:42.314Z,14.10
2022-10-04T03:43:50.402Z,14.10
2022-10-04T03:45:53.976Z,14.10
2022-10-04T03:48:05.062Z,14.10
2022-10-04T03:50:21.027Z,14.10
2022-10-04T03:52:28.603Z,14.10
2022-10-04T03:54:32.011Z,14.10
2022-10-04T03:56:37.952Z,14.10
2022-10-04T03:58:40.970Z,14.10
2022-10-04T04:01:03.809Z,14.10
2022-10-04T04:03:09.677Z,14.10
2022-10-04T04:05:37.749Z,14.10
2022-10-04T04:07:47.053Z,14.10
2022-10-04T04:10:07.071Z,14.10
2022-10-04T04:12:18.652Z,14.10
2022-10-04T04:14:26.691Z,14.10
2022-10-04T04:16:29.483Z,14.10
2022-10-04T04:18:35.182Z,14.10
2022-10-04T04:20:39.214Z,14.10
2022-10-04T04:22:46.626Z,14.00
2022-10-04T04:24:50.535Z,14.00
2022-10-04T04:27:05.989Z,14.00
2022-10-04T04:29:12.632Z,14.00
2022-10-04T04:31:27.150Z,14.00
2022-10-04T04:34:00.531Z,14.00
2022-10-04T04:36:11.518Z,13.90
2022-10-04T04:38:17.208Z,13.90
2022-10-04T04:40:24.409Z,13.90
2022-10-04T04:42:36.434Z,13.80
2022-10-04T04:45:06.047Z,13.80
2022-10-04T04:47:35.459Z,13.80
2022-10-04T04:49:40.317Z,13.80
2022-10-04T04:51:52.273Z,13.80
2022-10-04T04:53:56.264Z,13.80
2022-10-04T04:56:05.143Z,13.80
2022-10-04T04:58:08.919Z,13.80
2022-10-04T05:00:20.185Z,13.70
2022-10-04T05:02:36.651Z,13.70
2022-10-04T05:04:39.285Z,13.70
2022-10-04T05:06:45.453Z,13.70
2022-10-04T05:08:51.129Z,13.60
2022-10-04T05:11:12.902Z,13.60
2022-10-04T05:13:17.528Z,13.60
2022-10-04T05:15:20.237Z,13.60
2022-10-04T05:17:27.911Z,13.60
2022-10-04T05:19:37.692Z,13.60
2022-10-04T05:21:45.635Z,13.60
2022-10-04T05:23:48.578Z,13.60
2022-10-04T05:25:51.698Z,13.60
2022-10-04T05:27:55.997Z,13.60
2022-10-04T05:30:40.442Z,13.70
2022-10-04T05:33:14.657Z,13.60
2022-10-04T05:35:20.166Z,13.70
2022-10-04T05:38:03.414Z,13.80
2022-10-04T05:40:15.147Z,13.70
2022-10-04T05:42:38.390Z,13.80
2022-10-04T05:45:20.034Z,13.80
2022-10-04T05:47:29.226Z,13.80
2022-10-04T05:49:44.073Z,13.80
2022-10-04T05:51:56.873Z,13.80
2022-10-04T05:54:02.013Z,13.80
2022-10-04T05:56:30.055Z,13.80
2022-10-04T05:59:11.727Z,13.80
2022-10-04T06:01:58.906Z,13.90
2022-10-04T06:04:28.057Z,13.90
2022-10-04T06:06:44.018Z,13.90
2022-10-04T06:09:22.080Z,13.90
2022-10-04T06:11:48.655Z,14.00
2022-10-04T06:14:13.255Z,14.10
2022-10-04T06:16:39.833Z,14.10
2022-10-04T06:19:32.626Z,14.10
2022-10-04T06:22:06.625Z,14.10
2022-10-04T06:24:18.863Z,14.20
2022-10-04T07:06:07.439Z,15.00
2022-10-04T07:08:34.250Z,15.10
2022-10-04T07:15:24.349Z,15.10
2022-10-04T07:17:37.922Z,15.20
2022-10-04T07:19:47.474Z,15.20
2022-10-04T07:22:06.250Z,15.30
2022-10-04T07:24:12.669Z,15.30
2022-10-04T07:26:29.214Z,15.40
2022-10-04T07:29:12.713Z,15.50
2022-10-04T07:31:30.342Z,15.50
2022-10-04T07:33:44.132Z,15.60
2022-10-04T07:35:53.504Z,15.70
2022-10-04T07:38:23.991Z,15.70
2022-10-04T07:40:33.823Z,15.70
2022-10-04T07:42:55.040Z,15.80
2022-10-04T07:45:30.430Z,15.90
2022-10-04T07:47:33.419Z,15.90
2022-10-04T07:49:40.883Z,16.00
2022-10-04T07:51:52.107Z,16.00
2022-10-04T07:54:01.954Z,16.10
2022-10-04T07:56:42.861Z,16.10
2022-10-04T07:59:32.143Z,16.20
2022-10-04T08:02:25.604Z,16.10
2022-10-04T08:04:45.068Z,16.10
2022-10-04T08:07:03.869Z,16.10
2022-10-04T08:09:39.841Z,16.20
2022-10-04T08:12:05.378Z,16.20
2022-10-04T08:14:53.291Z,16.10
2022-10-04T08:17:24.487Z,16.20
2022-10-04T08:19:54.407Z,16.30
2022-10-04T08:22:16.301Z,16.40
2022-10-04T08:24:58.739Z,16.50
2022-10-04T08:27:26.876Z,16.70
2022-10-04T08:30:15.731Z,16.90
2022-10-04T08:32:52.079Z,16.90
2022-10-04T08:35:30.018Z,16.90
2022-10-04T08:38:18.890Z,17.00
2022-10-04T08:40:52.541Z,17.10
2022-10-04T08:43:28.158Z,17.20
2022-10-04T08:46:00.861Z,17.30
2022-10-04T08:48:30.919Z,17.40
2022-10-04T08:51:21.473Z,17.40
2022-10-04T08:54:16.861Z,17.40
2022-10-04T08:57:05.038Z,17.50
2022-10-04T08:59:47.205Z,17.50
2022-10-04T09:02:07.202Z,17.50
2022-10-04T09:04:52.088Z,17.70
2022-10-04T09:07:24.515Z,17.70
2022-10-04T09:09:48.130Z,17.80
2022-10-04T09:12:34.374Z,17.90
2022-10-04T09:20:19.755Z,18.10
2022-10-04T09:31:24.843Z,18.40
2022-10-04T09:33:26.480Z,18.30
2022-10-04T09:39:31.985Z,18.40
2022-10-04T09:42:24.751Z,18.40
2022-10-04T09:45:31.600Z,18.40
2022-10-04T09:47:54.356Z,18.40
2022-10-04T09:50:37.234Z,18.30
2022-10-04T09:53:22.240Z,18.30
2022-10-04T09:55:53.454Z,18.20
2022-10-04T09:58:43.406Z,18.00
2022-10-04T10:01:10.405Z,17.90
2022-10-04T10:04:03.216Z,17.90
2022-10-04T10:06:30.514Z,17.90
2022-10-04T10:08:56.961Z,18.00
2022-10-04T10:11:52.484Z,18.10
2022-10-04T10:14:57.188Z,18.30
2022-10-04T10:17:36.499Z,18.70
2022-10-04T10:20:39.476Z,18.70
2022-10-04T10:23:06.060Z,18.70
2022-10-04T10:25:52.004Z,18.70
2022-10-04T10:28:08.478Z,18.60
2022-10-04T10:30:26.076Z,18.50
2022-10-04T10:33:11.642Z,18.40
2022-10-04T10:35:55.399Z,18.40
2022-10-04T10:38:25.271Z,18.30
2022-10-04T10:41:20.256Z,18.30
2022-10-04T10:43:31.545Z,18.30
2022-10-04T10:46:07.053Z,18.30
2022-10-04T10:48:43.973Z,18.30
2022-10-04T10:51:03.380Z,18.30
2022-10-04T10:53:48.208Z,18.30
2022-10-04T10:56:29.305Z,18.30
2022-10-04T10:59:10.375Z,18.50
2022-10-04T11:02:10.479Z,18.60
2022-10-04T11:04:31.594Z,18.80
2022-10-04T11:07:14.214Z,19.10
2022-10-04T11:09:38.973Z,19.30
2022-10-04T11:12:04.214Z,19.50
2022-10-04T11:14:51.045Z,19.70
2022-10-04T11:17:21.000Z,19.80
2022-10-04T11:20:03.336Z,19.80
2022-10-04T11:22:46.581Z,19.70
2022-10-04T11:25:12.956Z,19.50
2022-10-04T11:27:28.537Z,19.30
2022-10-04T11:29:48.739Z,19.20
2022-10-04T11:32:31.447Z,19.30
2022-10-04T11:34:51.797Z,19.40
2022-10-04T11:37:16.895Z,19.40
2022-10-04T11:39:44.702Z,19.40
2022-10-04T11:42:05.240Z,19.40
2022-10-04T11:44:48.585Z,19.40
2022-10-04T11:47:16.023Z,19.30
2022-10-04T11:49:56.693Z,19.30
2022-10-04T11:52:30.167Z,19.20
2022-10-04T11:55:26.383Z,19.20
2022-10-04T11:58:12.052Z,19.20
2022-10-04T12:00:22.206Z,19.30
2022-10-04T12:02:40.203Z,19.40
2022-10-04T12:05:14.856Z,19.50
2022-10-04T12:07:39.416Z,19.80
2022-10-04T12:10:22.397Z,20.00
2022-10-04T12:12:43.953Z,20.30
2022-10-04T12:15:04.426Z,20.50
2022-10-04T12:17:44.541Z,20.70
2022-10-04T12:20:18.676Z,20.70
2022-10-04T12:23:13.374Z,20.80
2022-10-04T12:25:50.058Z,20.70
2022-10-04T12:28:32.637Z,20.70
2022-10-04T12:30:47.367Z,20.70
2022-10-04T12:33:19.227Z,20.70
2022-10-04T12:35:32.850Z,20.70
2022-10-04T12:38:07.087Z,20.70
2022-10-04T12:40:12.506Z,20.60
2022-10-04T12:42:36.135Z,20.60
2022-10-04T12:45:33.173Z,20.60
2022-10-04T12:48:08.111Z,20.50
2022-10-04T12:50:43.934Z,20.50
2022-10-04T12:53:00.278Z,20.40
2022-10-04T12:55:41.538Z,20.40
2022-10-04T12:57:51.963Z,20.30
2022-10-04T13:00:20.714Z,20.00
2022-10-04T13:03:04.099Z,19.90
2022-10-04T13:05:30.056Z,19.70
2022-10-04T13:08:31.034Z,19.60
2022-10-04T13:10:45.798Z,19.60
2022-10-04T13:13:05.557Z,19.50
2022-10-04T13:17:25.147Z,19.40
2022-10-04T13:18:14.813Z,19.40
2022-10-04T13:20:40.329Z,19.40
2022-10-04T13:22:59.252Z,19.40
2022-10-04T13:25:37.879Z,19.40
2022-10-04T13:28:00.332Z,19.40
2022-10-04T13:30:16.158Z,19.40
2022-10-04T13:32:28.568Z,19.50
2022-10-04T13:34:56.624Z,19.60
2022-10-04T13:37:10.430Z,19.70
2022-10-04T13:40:15.042Z,19.90
2022-10-04T13:42:46.006Z,20.00
2022-10-04T13:45:42.305Z,20.00
2022-10-04T13:48:14.447Z,20.00
2022-10-04T13:57:27.907Z,19.80
2022-10-04T14:00:04.627Z,19.70
2022-10-04T14:02:23.606Z,19.60
2022-10-04T14:05:09.621Z,19.50
2022-10-04T14:07:41.674Z,19.40
2022-10-04T14:10:15.847Z,19.30
2022-10-04T14:12:41.687Z,19.20
2022-10-04T14:15:26.450Z,19.30
2022-10-04T14:17:54.344Z,19.30
2022-10-04T14:20:02.619Z,19.30
2022-10-04T14:22:23.254Z,19.30
2022-10-04T14:25:06.633Z,19.30
2022-10-04T14:27:57.495Z,19.20
2022-10-04T14:30:23.205Z,19.20
2022-10-04T14:33:04.921Z,19.00
2022-10-04T14:35:23.343Z,19.00
2022-10-04T14:38:05.379Z,18.90
2022-10-04T14:40:35.858Z,18.80
2022-10-04T14:43:08.434Z,18.80
2022-10-04T14:45:28.058Z,18.70
2022-10-04T14:47:57.195Z,18.60
2022-10-04T14:50:22.098Z,18.50
2022-10-04T14:52:39.510Z,18.50
2022-10-04T14:54:54.336Z,18.40
2022-10-04T14:57:20.972Z,18.40
2022-10-04T14:59:55.630Z,18.40
2022-10-04T15:02:00.831Z,18.40
2022-10-04T15:04:15.659Z,18.30
2022-10-04T15:06:43.020Z,18.30
2022-10-04T15:09:16.193Z,18.20
2022-10-04T15:15:29.634Z,18.20
2022-10-04T15:17:39.031Z,18.10
2022-10-04T15:20:20.884Z,18.10
2022-10-04T15:22:40.889Z,18.00
2022-10-04T15:24:49.493Z,17.90
2022-10-04T15:27:23.803Z,17.90
2022-10-04T15:30:01.158Z,17.90
2022-10-04T15:32:39.018Z,17.80
2022-10-04T15:35:25.068Z,17.70
2022-10-04T15:37:44.202Z,17.70
2022-10-04T15:40:20.352Z,17.60
2022-10-04T15:42:37.730Z,17.60
2022-10-04T15:45:01.718Z,17.50
2022-10-04T15:47:34.507Z,17.50
2022-10-04T15:50:21.350Z,17.40
2022-10-04T15:53:08.030Z,17.30
2022-10-04T15:55:23.081Z,17.20
2022-10-04T15:57:31.353Z,17.10
2022-10-04T15:59:44.666Z,17.10
2022-10-04T16:01:56.134Z,17.00
2022-10-04T16:04:19.761Z,17.00
2022-10-04T16:06:47.108Z,16.90
2022-10-04T16:09:13.161Z,16.90
2022-10-04T16:11:56.179Z,16.80
2022-10-04T16:14:27.487Z,16.70
2022-10-04T16:16:45.184Z,16.70
2022-10-04T16:19:17.714Z,16.60
2022-10-04T16:21:41.206Z,16.50
2022-10-04T16:23:45.231Z,16.50
2022-10-04T16:25:48.182Z,16.40
2022-10-04T16:27:56.908Z,16.30
2022-10-04T16:30:28.105Z,16.20
2022-10-04T16:33:16.230Z,16.10
2022-10-04T16:35:25.946Z,16.00
2022-10-04T16:38:00.458Z,15.90
2022-10-04T16:40:24.903Z,15.80
2022-10-04T16:42:59.528Z,15.80
2022-10-04T16:45:24.914Z,15.60
2022-10-04T16:47:48.243Z,15.50
2022-10-04T16:49:55.538Z,15.50
2022-10-04T16:52:23.312Z,15.40
2022-10-04T16:55:00.166Z,15.30
2022-10-04T16:57:32.195Z,15.30
2022-10-04T16:59:38.133Z,15.10
2022-10-04T17:02:06.338Z,15.10
2022-10-04T17:04:39.409Z,15.00
2022-10-04T17:06:59.655Z,14.90
2022-10-04T17:09:48.059Z,14.90
2022-10-04T17:12:42.106Z,14.80
2022-10-04T17:14:56.855Z,14.70
2022-10-04T17:17:47.109Z,14.70
2022-10-04T17:20:05.582Z,14.60
2022-10-04T17:22:38.567Z,14.60
2022-10-04T17:24:48.162Z,14.50
2022-10-04T17:27:44.904Z,14.50
2022-10-04T17:30:11.708Z,14.40
2022-10-04T17:32:34.990Z,14.40
2022-10-04T17:34:52.377Z,14.40
2022-10-04T17:37:12.443Z,14.30
2022-10-04T17:39:46.716Z,14.20
2022-10-04T17:42:40.048Z,14.20
2022-10-04T17:44:56.351Z,14.20
2022-10-04T17:47:53.659Z,14.20
2022-10-04T17:50:30.514Z,14.20
2022-10-04T17:53:02.531Z,14.10
2022-10-04T17:55:23.696Z,14.10
2022-10-04T17:57:45.210Z,14.10
2022-10-04T18:00:09.320Z,14.10
2022-10-04T18:02:55.534Z,14.00
2022-10-04T18:05:08.448Z,14.00
2022-10-04T18:07:20.905Z,13.90
2022-10-04T18:09:43.802Z,13.90
2022-10-04T18:12:02.311Z,13.90
2022-10-04T18:14:09.855Z,13.90
2022-10-04T18:16:26.818Z,13.90
2022-10-04T18:18:38.512Z,13.80
2022-10-04T18:20:52.621Z,13.80
2022-10-04T18:23:01.071Z,13.80
2022-10-04T18:25:23.548Z,13.70
2022-10-04T18:27:28.492Z,13.70
2022-10-04T18:30:00.345Z,13.60
2022-10-04T18:32:27.724Z,13.60
2022-10-04T18:34:32.117Z,13.60
2022-10-04T18:37:05.750Z,13.50
2022-10-04T18:39:14.406Z,13.50
2022-10-04T18:41:23.334Z,13.40
2022-10-04T18:43:49.697Z,13.40
2022-10-04T18:46:09.359Z,13.40
2022-10-04T18:48:18.354Z,13.40
2022-10-04T18:50:20.903Z,13.30
2022-10-04T18:52:39.326Z,13.30
2022-10-04T18:55:26.853Z,13.20
2022-10-04T18:58:00.803Z,13.20
2022-10-04T19:00:34.215Z,13.20
2022-10-04T19:03:06.620Z,13.10
2022-10-04T19:05:18.154Z,13.10
2022-10-04T19:07:54.723Z,13.00
2022-10-04T19:10:11.796Z,13.10
2022-10-04T19:12:23.732Z,13.00
2022-10-04T19:15:03.523Z,12.90
2022-10-04T19:17:43.368Z,12.90
2022-10-04T19:20:07.211Z,12.90
2022-10-04T19:22:30.768Z,12.80
2022-10-04T19:25:31.407Z,12.80
2022-10-04T19:27:45.318Z,12.80
2022-10-04T19:30:16.750Z,12.70
2022-10-04T19:32:56.798Z,12.70
2022-10-04T19:35:13.031Z,12.70
2022-10-04T19:37:42.151Z,12.70
2022-10-04T19:39:56.416Z,12.70
2022-10-04T19:42:26.479Z,12.70
2022-10-04T19:44:40.630Z,12.70
2022-10-04T19:47:17.113Z,12.60
2022-10-04T19:49:37.036Z,12.60
2022-10-04T19:51:52.220Z,12.60
2022-10-04T19:54:14.767Z,12.50
2022-10-04T19:56:23.752Z,12.50
2022-10-04T19:58:45.175Z,12.50
2022-10-04T20:00:49.136Z,12.50
2022-10-04T20:02:51.884Z,12.50
2022-10-04T20:04:56.353Z,12.50
2022-10-04T20:07:05.357Z,12.50
2022-10-04T20:09:37.397Z,12.50
2022-10-04T20:11:52.166Z,12.40
2022-10-04T20:14:07.170Z,12.40
2022-10-04T20:16:09.887Z,12.40
2022-10-04T20:18:31.845Z,12.40
2022-10-04T20:20:43.558Z,12.40
2022-10-04T20:22:54.541Z,12.30
2022-10-04T20:24:58.011Z,12.30
2022-10-04T20:27:06.235Z,12.30
2022-10-04T20:29:08.934Z,12.30
2022-10-04T20:31:33.204Z,12.30
2022-10-04T20:33:46.582Z,12.30
2022-10-04T20:36:09.308Z,12.30
2022-10-04T20:38:31.835Z,12.20
2022-10-04T20:40:35.133Z,12.20
2022-10-04T20:42:39.219Z,12.10
2022-10-04T20:44:56.626Z,12.10
2022-10-04T20:46:59.497Z,12.10
2022-10-04T20:49:03.044Z,12.10
2022-10-04T20:51:10.873Z,12.10
2022-10-04T20:53:23.585Z,12.00
2022-10-04T20:55:32.995Z,12.00
2022-10-04T20:57:40.637Z,12.00
2022-10-04T20:59:43.415Z,11.90
2022-10-04T21:02:05.396Z,11.90
2022-10-04T21:04:15.743Z,11.90
2022-10-04T21:06:18.415Z,11.80
2022-10-04T21:08:25.087Z,11.80
2022-10-04T21:10:28.668Z,11.80
2022-10-04T21:12:40.520Z,11.80
2022-10-04T21:15:06.515Z,11.80
2022-10-04T21:17:30.654Z,11.70
2022-10-04T21:19:35.621Z,11.70
2022-10-04T21:21:50.991Z,11.70
2022-10-04T21:23:53.588Z,11.70
2022-10-04T21:26:35.024Z,11.70
2022-10-04T21:28:37.764Z,11.70
2022-10-04T21:30:40.399Z,11.70
2022-10-04T21:32:43.315Z,11.70
2022-10-04T21:34:53.439Z,11.70
2022-10-04T21:36:56.908Z,11.70
2022-10-04T21:38:59.551Z,11.70
2022-10-04T21:41:02.602Z,11.60
2022-10-04T21:43:05.183Z,11.60
2022-10-04T21:45:08.451Z,11.60
2022-10-04T21:47:11.481Z,11.60
2022-10-04T21:49:14.028Z,11.60
2022-10-04T21:51:16.676Z,11.60
2022-10-04T21:53:20.613Z,11.60
2022-10-04T21:55:23.307Z,11.60
2022-10-04T21:57:25.834Z,11.60
2022-10-04T21:59:28.567Z,11.60
2022-10-04T22:01:31.405Z,11.60
2022-10-04T22:03:34.172Z,11.60
2022-10-04T22:05:36.845Z,11.60
2022-10-04T22:07:39.855Z,11.60
2022-10-04T22:09:42.392Z,11.60
2022-10-04T22:11:45.037Z,11.50
2022-10-04T22:13:48.952Z,11.50
2022-10-04T22:15:51.924Z,11.50
2022-10-04T22:17:55.431Z,11.50
2022-10-04T22:19:58.027Z,11.50
2022-10-04T22:22:00.558Z,11.50
2022-10-04T22:24:18.884Z,11.50
2022-10-04T22:26:23.544Z,11.50
2022-10-04T22:28:29.905Z,11.50
2022-10-04T22:30:32.478Z,11.50
2022-10-04T22:32:35.183Z,11.50
2022-10-04T22:34:37.753Z,11.50
2022-10-04T22:36:41.481Z,11.50
2022-10-04T22:38:49.834Z,11.50
2022-10-04T22:40:52.395Z,11.50
2022-10-04T22:43:00.820Z,11.50
2022-10-04T22:45:08.307Z,11.50
2022-10-04T22:47:14.706Z,11.50
2022-10-04T22:49:31.636Z,11.50
2022-10-04T22:51:36.874Z,11.50
2022-10-04T22:53:47.956Z,11.50
2022-10-04T22:55:52.364Z,11.50
2022-10-04T22:57:55.577Z,11.50
2022-10-04T22:59:58.123Z,11.50
2022-10-04T23:02:07.797Z,11.50
2022-10-04T23:04:20.988Z,11.50
2022-10-04T23:06:23.671Z,11.50
2022-10-04T23:08:26.370Z,11.50
2022-10-04T23:10:28.912Z,11.50
2022-10-04T23:12:31.498Z,11.50
2022-10-04T23:14:37.334Z,11.50
2022-10-04T23:16:39.980Z,11.50
2022-10-04T23:18:42.841Z,11.50
2022-10-04T23:20:53.966Z,11.50
2022-10-04T23:22:59.665Z,11.50
2022-10-04T23:25:02.710Z,11.60
2022-10-04T23:27:17.384Z,11.50
2022-10-04T23:29:30.747Z,11.60
2022-10-04T23:31:35.040Z,11.60
2022-10-04T23:33:37.617Z,11.60
2022-10-04T23:35:40.195Z,11.60
2022-10-04T23:37:42.903Z,11.60
2022-10-04T23:39:46.195Z,11.60
2022-10-04T23:41:48.767Z,11.60
2022-10-04T23:43:51.682Z,11.60
2022-10-04T23:50:35.843Z,11.60
2022-10-04T23:52:40.387Z,11.60
2022-10-04T23:54:42.943Z,11.60
2022-10-04T23:56:48.171Z,11.60
2022-10-04T23:58:53.418Z,11.60
